sensor_id;sensor_type;location;lat;lon;timestamp;temperature;humidity
12254;DHT22;6189;52.526;13.390;2022-10-17T00:00:31;16.40;99.90
12254;DHT22;6189;52.526;13.390;2022-10-17T00:03:16;16.50;99.90
12254;DHT22;6189;52.526;13.390;2022-10-17T00:06:05;16.40;99.90
12254;DHT22;6189;52.526;13.390;2022-10-17T00:08:51;16.50;99.90
12254;DHT22;6189;52.526;13.390;2022-10-17T00:11:36;16.40;99.90
12254;DHT22;6189;52.526;13.390;2022-10-17T00:14:22;16.50;99.90
12254;DHT22;6189;52.526;13.390;2022-10-17T00:17:08;16.50;99.90
12254;DHT22;6189;52.526;13.390;2022-10-17T00:19:54;16.40;99.90
12254;DHT22;6189;52.526;13.390;2022-10-17T00:22:39;16.40;99.90
12254;DHT22;6189;52.526;13.390;2022-10-17T00:25:25;16.50;99.90
12254;DHT22;6189;52.526;13.390;2022-10-17T00:28:14;16.40;99.90
12254;DHT22;6189;52.526;13.390;2022-10-17T00:31:01;16.40;99.90
12254;DHT22;6189;52.526;13.390;2022-10-17T00:33:49;16.40;99.90
12254;DHT22;6189;52.526;13.390;2022-10-17T00:36:35;16.40;99.90
12254;DHT22;6189;52.526;13.390;2022-10-17T00:39:20;16.40;99.90
12254;DHT22;6189;52.526;13.390;2022-10-17T00:42:06;16.30;99.90
12254;DHT22;6189;52.526;13.390;2022-10-17T00:45:18;16.40;99.90
12254;DHT22;6189;52.526;13.390;2022-10-17T00:48:06;16.40;99.90
12254;DHT22;6189;52.526;13.390;2022-10-17T00:50:54;16.40;99.90
12254;DHT22;6189;52.526;13.390;2022-10-17T00:53:40;16.40;99.90
12254;DHT22;6189;52.526;13.390;2022-10-17T00:56:26;16.40;99.90
12254;DHT22;6189;52.526;13.390;2022-10-17T00:59:12;16.40;99.90
12254;DHT22;6189;52.526;13.390;2022-10-17T01:02:03;16.40;99.90
12254;DHT22;6189;52.526;13.390;2022-10-17T01:04:50;16.30;99.90
12254;DHT22;6189;52.526;13.390;2022-10-17T01:07:40;16.40;99.90
12254;DHT22;6189;52.526;13.390;2022-10-17T01:10:29;16.50;99.90
12254;DHT22;6189;52.526;13.390;2022-10-17T01:13:22;16.50;99.90
12254;DHT22;6189;52.526;13.390;2022-10-17T01:16:14;16.50;99.90
12254;DHT22;6189;52.526;13.390;2022-10-17T01:19:16;16.50;99.90
12254;DHT22;6189;52.526;13.390;2022-10-17T01:22:11;16.50;99.90
12254;DHT22;6189;52.526;13.390;2022-10-17T01:25:20;16.50;99.90
12254;DHT22;6189;52.526;13.390;2022-10-17T01:28:31;16.50;99.90
12254;DHT22;6189;52.526;13.390;2022-10-17T01:31:22;16.40;99.90
12254;DHT22;6189;52.526;13.390;2022-10-17T01:34:15;16.40;99.90
12254;DHT22;6189;52.526;13.390;2022-10-17T01:37:05;16.40;99.90
12254;DHT22;6189;52.526;13.390;2022-10-17T01:39:52;16.40;99.90
12254;DHT22;6189;52.526;13.390;2022-10-17T01:42:43;16.30;99.90
12254;DHT22;6189;52.526;13.390;2022-10-17T01:45:32;16.40;99.90
12254;DHT22;6189;52.526;13.390;2022-10-17T01:48:24;16.40;99.90
12254;DHT22;6189;52.526;13.390;2022-10-17T01:51:15;16.40;99.90
12254;DHT22;6189;52.526;13.390;2022-10-17T01:54:05;16.40;99.90
12254;DHT22;6189;52.526;13.390;2022-10-17T01:56:57;16.40;99.90
12254;DHT22;6189;52.526;13.390;2022-10-17T01:59:46;16.30;99.90
12254;DHT22;6189;52.526;13.390;2022-10-17T02:02:33;16.30;99.90
12254;DHT22;6189;52.526;13.390;2022-10-17T02:05:24;16.40;99.90
12254;DHT22;6189;52.526;13.390;2022-10-17T02:08:11;16.40;99.90
12254;DHT22;6189;52.526;13.390;2022-10-17T02:11:00;16.30;99.90
12254;DHT22;6189;52.526;13.390;2022-10-17T02:14:08;16.30;99.90
12254;DHT22;6189;52.526;13.390;2022-10-17T02:17:07;16.30;99.90
12254;DHT22;6189;52.526;13.390;2022-10-17T02:19:59;16.30;99.90
12254;DHT22;6189;52.526;13.390;2022-10-17T02:22:53;16.20;99.90
12254;DHT22;6189;52.526;13.390;2022-10-17T02:25:46;16.10;99.90
12254;DHT22;6189;52.526;13.390;2022-10-17T02:28:39;16.20;99.90
12254;DHT22;6189;52.526;13.390;2022-10-17T02:31:29;16.20;99.90
12254;DHT22;6189;52.526;13.390;2022-10-17T02:34:18;16.20;99.90
12254;DHT22;6189;52.526;13.390;2022-10-17T02:37:06;16.20;99.90
12254;DHT22;6189;52.526;13.390;2022-10-17T02:39:56;16.20;99.90
12254;DHT22;6189;52.526;13.390;2022-10-17T02:42:44;16.20;99.90
12254;DHT22;6189;52.526;13.390;2022-10-17T02:45:30;16.20;99.90
12254;DHT22;6189;52.526;13.390;2022-10-17T02:48:24;16.20;99.90
12254;DHT22;6189;52.526;13.390;2022-10-17T02:51:16;16.20;99.90
12254;DHT22;6189;52.526;13.390;2022-10-17T02:54:09;16.20;99.90
12254;DHT22;6189;52.526;13.390;2022-10-17T02:57:01;16.20;99.90
12254;DHT22;6189;52.526;13.390;2022-10-17T02:59:51;16.20;99.90
12254;DHT22;6189;52.526;13.390;2022-10-17T03:02:39;16.10;99.90
12254;DHT22;6189;52.526;13.390;2022-10-17T03:05:26;16.10;99.90
12254;DHT22;6189;52.526;13.390;2022-10-17T03:08:12;16.10;99.90
12254;DHT22;6189;52.526;13.390;2022-10-17T03:10:58;16.00;99.90
12254;DHT22;6189;52.526;13.390;2022-10-17T03:13:44;16.00;99.90
12254;DHT22;6189;52.526;13.390;2022-10-17T03:16:30;16.00;99.90
12254;DHT22;6189;52.526;13.390;2022-10-17T03:19:15;16.00;99.90
12254;DHT22;6189;52.526;13.390;2022-10-17T03:22:01;15.90;99.90
12254;DHT22;6189;52.526;13.390;2022-10-17T03:24:46;16.00;99.90
12254;DHT22;6189;52.526;13.390;2022-10-17T03:27:32;16.00;99.90
12254;DHT22;6189;52.526;13.390;2022-10-17T03:30:19;16.00;99.90
12254;DHT22;6189;52.526;13.390;2022-10-17T03:33:05;16.00;99.90
12254;DHT22;6189;52.526;13.390;2022-10-17T03:35:50;16.00;99.90
12254;DHT22;6189;52.526;13.390;2022-10-17T03:38:37;16.00;99.90
12254;DHT22;6189;52.526;13.390;2022-10-17T03:41:23;15.90;99.90
12254;DHT22;6189;52.526;13.390;2022-10-17T03:44:08;15.90;99.90
12254;DHT22;6189;52.526;13.390;2022-10-17T03:46:56;15.90;99.90
12254;DHT22;6189;52.526;13.390;2022-10-17T03:49:41;15.90;99.90
12254;DHT22;6189;52.526;13.390;2022-10-17T03:52:27;15.80;99.90
12254;DHT22;6189;52.526;13.390;2022-10-17T03:55:12;15.90;99.90
12254;DHT22;6189;52.526;13.390;2022-10-17T03:57:58;15.90;99.90
12254;DHT22;6189;52.526;13.390;2022-10-17T04:00:43;15.90;99.90
12254;DHT22;6189;52.526;13.390;2022-10-17T04:03:30;15.80;99.90
12254;DHT22;6189;52.526;13.390;2022-10-17T04:06:16;15.90;99.90
12254;DHT22;6189;52.526;13.390;2022-10-17T04:09:01;15.80;99.90
12254;DHT22;6189;52.526;13.390;2022-10-17T04:11:47;15.70;99.90
12254;DHT22;6189;52.526;13.390;2022-10-17T04:14:32;15.80;99.90
12254;DHT22;6189;52.526;13.390;2022-10-17T04:17:18;15.70;99.90
12254;DHT22;6189;52.526;13.390;2022-10-17T04:20:05;15.70;99.90
12254;DHT22;6189;52.526;13.390;2022-10-17T04:22:51;15.70;99.90
12254;DHT22;6189;52.526;13.390;2022-10-17T04:25:37;15.70;99.90
12254;DHT22;6189;52.526;13.390;2022-10-17T04:28:22;15.60;99.90
12254;DHT22;6189;52.526;13.390;2022-10-17T04:31:11;15.60;99.90
12254;DHT22;6189;52.526;13.390;2022-10-17T04:33:57;15.60;99.90
12254;DHT22;6189;52.526;13.390;2022-10-17T04:36:43;15.60;99.90
12254;DHT22;6189;52.526;13.390;2022-10-17T04:39:30;15.60;99.90
12254;DHT22;6189;52.526;13.390;2022-10-17T04:42:15;15.70;99.90
12254;DHT22;6189;52.526;13.390;2022-10-17T04:45:01;15.70;99.90
12254;DHT22;6189;52.526;13.390;2022-10-17T04:47:46;15.60;99.90
12254;DHT22;6189;52.526;13.390;2022-10-17T04:50:31;15.60;99.90
12254;DHT22;6189;52.526;13.390;2022-10-17T04:53:18;15.70;99.90
12254;DHT22;6189;52.526;13.390;2022-10-17T04:56:08;15.70;99.90
12254;DHT22;6189;52.526;13.390;2022-10-17T04:58:54;15.60;99.90
12254;DHT22;6189;52.526;13.390;2022-10-17T05:01:40;15.70;99.90
12254;DHT22;6189;52.526;13.390;2022-10-17T05:04:25;15.70;99.90
12254;DHT22;6189;52.526;13.390;2022-10-17T05:07:11;15.70;99.90
12254;DHT22;6189;52.526;13.390;2022-10-17T05:09:58;15.70;99.90
12254;DHT22;6189;52.526;13.390;2022-10-17T05:12:43;15.60;99.90
12254;DHT22;6189;52.526;13.390;2022-10-17T05:15:28;15.60;99.90
12254;DHT22;6189;52.526;13.390;2022-10-17T05:18:14;15.70;99.90
12254;DHT22;6189;52.526;13.390;2022-10-17T05:20:59;15.70;99.90
12254;DHT22;6189;52.526;13.390;2022-10-17T05:23:47;15.60;99.90
12254;DHT22;6189;52.526;13.390;2022-10-17T05:26:34;15.60;99.90
12254;DHT22;6189;52.526;13.390;2022-10-17T05:29:19;15.60;99.90
12254;DHT22;6189;52.526;13.390;2022-10-17T05:32:05;15.60;99.90
12254;DHT22;6189;52.526;13.390;2022-10-17T05:34:50;15.60;99.90
12254;DHT22;6189;52.526;13.390;2022-10-17T05:37:36;15.60;99.90
12254;DHT22;6189;52.526;13.390;2022-10-17T05:40:21;15.60;99.90
12254;DHT22;6189;52.526;13.390;2022-10-17T05:43:08;15.60;99.90
12254;DHT22;6189;52.526;13.390;2022-10-17T05:45:54;15.60;99.90
12254;DHT22;6189;52.526;13.390;2022-10-17T05:48:39;15.60;99.90
12254;DHT22;6189;52.526;13.390;2022-10-17T05:51:25;15.60;99.90
12254;DHT22;6189;52.526;13.390;2022-10-17T05:54:10;15.50;99.90
12254;DHT22;6189;52.526;13.390;2022-10-17T05:56:56;15.50;99.90
12254;DHT22;6189;52.526;13.390;2022-10-17T05:59:43;15.50;99.90
12254;DHT22;6189;52.526;13.390;2022-10-17T06:02:28;15.60;99.90
12254;DHT22;6189;52.526;13.390;2022-10-17T06:05:14;15.60;99.90
12254;DHT22;6189;52.526;13.390;2022-10-17T06:08:00;15.60;99.90
12254;DHT22;6189;52.526;13.390;2022-10-17T06:10:46;15.60;99.90
12254;DHT22;6189;52.526;13.390;2022-10-17T06:13:32;15.60;99.90
12254;DHT22;6189;52.526;13.390;2022-10-17T06:16:19;15.60;99.90
12254;DHT22;6189;52.526;13.390;2022-10-17T06:19:04;15.60;99.90
12254;DHT22;6189;52.526;13.390;2022-10-17T06:21:49;15.60;99.90
12254;DHT22;6189;52.526;13.390;2022-10-17T06:24:35;15.50;99.90
12254;DHT22;6189;52.526;13.390;2022-10-17T06:27:20;15.50;99.90
12254;DHT22;6189;52.526;13.390;2022-10-17T06:30:06;15.50;99.90
12254;DHT22;6189;52.526;13.390;2022-10-17T06:32:53;15.50;99.90
12254;DHT22;6189;52.526;13.390;2022-10-17T06:35:38;15.50;99.90
12254;DHT22;6189;52.526;13.390;2022-10-17T06:38:24;15.50;99.90
12254;DHT22;6189;52.526;13.390;2022-10-17T06:41:12;15.60;99.90
12254;DHT22;6189;52.526;13.390;2022-10-17T06:43:57;15.60;99.90
12254;DHT22;6189;52.526;13.390;2022-10-17T06:46:43;15.50;99.90
12254;DHT22;6189;52.526;13.390;2022-10-17T06:49:29;15.60;99.90
12254;DHT22;6189;52.526;13.390;2022-10-17T06:52:17;15.60;99.90
12254;DHT22;6189;52.526;13.390;2022-10-17T06:55:03;15.60;99.90
12254;DHT22;6189;52.526;13.390;2022-10-17T06:57:48;15.60;99.90
12254;DHT22;6189;52.526;13.390;2022-10-17T07:00:35;15.60;99.90
12254;DHT22;6189;52.526;13.390;2022-10-17T07:03:20;15.60;99.90
12254;DHT22;6189;52.526;13.390;2022-10-17T07:06:07;15.60;99.90
12254;DHT22;6189;52.526;13.390;2022-10-17T07:08:54;15.60;99.90
12254;DHT22;6189;52.526;13.390;2022-10-17T07:11:39;15.70;99.90
12254;DHT22;6189;52.526;13.390;2022-10-17T07:14:25;15.70;99.90
12254;DHT22;6189;52.526;13.390;2022-10-17T07:17:15;15.80;99.90
12254;DHT22;6189;52.526;13.390;2022-10-17T07:20:00;15.80;99.90
12254;DHT22;6189;52.526;13.390;2022-10-17T07:22:47;15.80;99.90
12254;DHT22;6189;52.526;13.390;2022-10-17T07:25:32;15.90;99.90
12254;DHT22;6189;52.526;13.390;2022-10-17T07:28:18;16.00;99.90
12254;DHT22;6189;52.526;13.390;2022-10-17T07:31:05;16.00;99.90
12254;DHT22;6189;52.526;13.390;2022-10-17T07:33:51;16.00;99.90
12254;DHT22;6189;52.526;13.390;2022-10-17T07:36:36;16.10;99.90
12254;DHT22;6189;52.526;13.390;2022-10-17T07:39:23;16.20;99.90
12254;DHT22;6189;52.526;13.390;2022-10-17T07:42:09;16.20;99.90
12254;DHT22;6189;52.526;13.390;2022-10-17T07:44:55;16.30;99.90
12254;DHT22;6189;52.526;13.390;2022-10-17T07:47:40;16.20;99.90
12254;DHT22;6189;52.526;13.390;2022-10-17T07:50:26;16.30;99.90
12254;DHT22;6189;52.526;13.390;2022-10-17T07:53:12;16.30;99.90
12254;DHT22;6189;52.526;13.390;2022-10-17T07:56:03;16.40;99.90
12254;DHT22;6189;52.526;13.390;2022-10-17T07:58:50;16.50;99.90
12254;DHT22;6189;52.526;13.390;2022-10-17T08:01:35;16.50;99.90
12254;DHT22;6189;52.526;13.390;2022-10-17T08:04:21;16.60;99.90
12254;DHT22;6189;52.526;13.390;2022-10-17T08:07:06;16.60;99.90
12254;DHT22;6189;52.526;13.390;2022-10-17T08:09:52;16.60;99.90
12254;DHT22;6189;52.526;13.390;2022-10-17T08:12:39;16.70;99.90
12254;DHT22;6189;52.526;13.390;2022-10-17T08:15:25;16.80;99.90
12254;DHT22;6189;52.526;13.390;2022-10-17T08:18:11;16.90;99.90
12254;DHT22;6189;52.526;13.390;2022-10-17T08:20:59;17.00;99.90
12254;DHT22;6189;52.526;13.390;2022-10-17T08:23:45;17.00;99.90
12254;DHT22;6189;52.526;13.390;2022-10-17T08:26:30;17.10;99.90
12254;DHT22;6189;52.526;13.390;2022-10-17T08:29:17;17.20;99.90
12254;DHT22;6189;52.526;13.390;2022-10-17T08:32:02;17.30;99.90
12254;DHT22;6189;52.526;13.390;2022-10-17T08:34:48;17.40;99.90
12254;DHT22;6189;52.526;13.390;2022-10-17T08:37:33;17.50;99.90
12254;DHT22;6189;52.526;13.390;2022-10-17T08:40:21;17.50;99.90
12254;DHT22;6189;52.526;13.390;2022-10-17T08:43:18;17.60;99.90
12254;DHT22;6189;52.526;13.390;2022-10-17T08:46:08;17.80;99.90
12254;DHT22;6189;52.526;13.390;2022-10-17T08:48:53;17.80;99.90
12254;DHT22;6189;52.526;13.390;2022-10-17T08:51:46;18.00;99.90
12254;DHT22;6189;52.526;13.390;2022-10-17T08:54:39;18.00;99.90
12254;DHT22;6189;52.526;13.390;2022-10-17T08:57:26;18.00;99.90
12254;DHT22;6189;52.526;13.390;2022-10-17T09:00:15;18.10;99.90
12254;DHT22;6189;52.526;13.390;2022-10-17T09:03:13;18.20;99.90
12254;DHT22;6189;52.526;13.390;2022-10-17T09:06:11;18.30;99.90
12254;DHT22;6189;52.526;13.390;2022-10-17T09:09:20;18.40;99.90
12254;DHT22;6189;52.526;13.390;2022-10-17T09:12:14;18.50;99.90
12254;DHT22;6189;52.526;13.390;2022-10-17T09:15:32;18.50;99.90
12254;DHT22;6189;52.526;13.390;2022-10-17T09:18:24;18.70;99.90
12254;DHT22;6189;52.526;13.390;2022-10-17T09:21:17;18.70;99.90
12254;DHT22;6189;52.526;13.390;2022-10-17T09:24:09;18.80;99.90
12254;DHT22;6189;52.526;13.390;2022-10-17T09:26:57;18.90;99.90
12254;DHT22;6189;52.526;13.390;2022-10-17T09:29:45;19.00;99.90
12254;DHT22;6189;52.526;13.390;2022-10-17T09:32:32;19.10;99.90
12254;DHT22;6189;52.526;13.390;2022-10-17T09:35:19;19.20;99.90
12254;DHT22;6189;52.526;13.390;2022-10-17T09:38:06;19.20;99.90
12254;DHT22;6189;52.526;13.390;2022-10-17T09:40:54;19.40;99.90
12254;DHT22;6189;52.526;13.390;2022-10-17T09:43:40;19.40;99.90
12254;DHT22;6189;52.526;13.390;2022-10-17T09:46:29;19.60;99.90
12254;DHT22;6189;52.526;13.390;2022-10-17T09:49:19;19.60;99.90
12254;DHT22;6189;52.526;13.390;2022-10-17T09:52:13;19.70;99.90
12254;DHT22;6189;52.526;13.390;2022-10-17T09:55:02;19.70;99.90
12254;DHT22;6189;52.526;13.390;2022-10-17T09:57:57;19.80;99.90
12254;DHT22;6189;52.526;13.390;2022-10-17T10:00:45;19.90;99.90
12254;DHT22;6189;52.526;13.390;2022-10-17T10:03:31;20.00;99.90
12254;DHT22;6189;52.526;13.390;2022-10-17T10:06:18;20.10;99.90
12254;DHT22;6189;52.526;13.390;2022-10-17T10:09:19;20.10;99.90
12254;DHT22;6189;52.526;13.390;2022-10-17T10:12:15;20.20;99.90
12254;DHT22;6189;52.526;13.390;2022-10-17T10:15:22;20.40;99.90
12254;DHT22;6189;52.526;13.390;2022-10-17T10:18:28;20.50;99.90
12254;DHT22;6189;52.526;13.390;2022-10-17T10:21:14;20.60;99.90
12254;DHT22;6189;52.526;13.390;2022-10-17T10:24:12;20.70;99.90
12254;DHT22;6189;52.526;13.390;2022-10-17T10:27:00;20.80;99.90
12254;DHT22;6189;52.526;13.390;2022-10-17T10:29:48;20.80;99.90
12254;DHT22;6189;52.526;13.390;2022-10-17T10:32:36;20.90;99.90
12254;DHT22;6189;52.526;13.390;2022-10-17T10:35:32;21.00;99.90
12254;DHT22;6189;52.526;13.390;2022-10-17T10:38:18;21.10;99.90
12254;DHT22;6189;52.526;13.390;2022-10-17T10:41:08;21.10;99.90
12254;DHT22;6189;52.526;13.390;2022-10-17T10:43:54;21.10;99.90
12254;DHT22;6189;52.526;13.390;2022-10-17T10:46:40;21.10;99.90
12254;DHT22;6189;52.526;13.390;2022-10-17T10:49:28;21.20;99.90
12254;DHT22;6189;52.526;13.390;2022-10-17T10:52:21;21.30;99.90
12254;DHT22;6189;52.526;13.390;2022-10-17T10:55:19;21.40;99.90
12254;DHT22;6189;52.526;13.390;2022-10-17T10:58:20;21.50;99.90
12254;DHT22;6189;52.526;13.390;2022-10-17T11:01:16;21.60;99.90
12254;DHT22;6189;52.526;13.390;2022-10-17T11:04:18;21.60;99.90
12254;DHT22;6189;52.526;13.390;2022-10-17T11:07:10;21.70;99.90
12254;DHT22;6189;52.526;13.390;2022-10-17T11:10:02;21.80;99.90
12254;DHT22;6189;52.526;13.390;2022-10-17T11:12:52;21.90;99.90
12254;DHT22;6189;52.526;13.390;2022-10-17T11:15:46;22.00;99.90
12254;DHT22;6189;52.526;13.390;2022-10-17T11:18:34;22.10;99.90
12254;DHT22;6189;52.526;13.390;2022-10-17T11:21:27;22.20;99.90
12254;DHT22;6189;52.526;13.390;2022-10-17T11:24:21;22.30;99.90
12254;DHT22;6189;52.526;13.390;2022-10-17T11:27:08;22.30;99.90
12254;DHT22;6189;52.526;13.390;2022-10-17T11:29:54;22.40;99.90
12254;DHT22;6189;52.526;13.390;2022-10-17T11:32:43;22.50;99.90
12254;DHT22;6189;52.526;13.390;2022-10-17T11:35:35;22.60;99.90
12254;DHT22;6189;52.526;13.390;2022-10-17T11:38:26;22.60;99.90
12254;DHT22;6189;52.526;13.390;2022-10-17T11:41:18;22.70;99.90
12254;DHT22;6189;52.526;13.390;2022-10-17T11:44:14;22.70;99.90
12254;DHT22;6189;52.526;13.390;2022-10-17T11:47:06;22.70;99.90
12254;DHT22;6189;52.526;13.390;2022-10-17T11:50:00;22.70;99.90
12254;DHT22;6189;52.526;13.390;2022-10-17T11:52:51;22.70;99.90
12254;DHT22;6189;52.526;13.390;2022-10-17T11:55:38;22.80;99.90
12254;DHT22;6189;52.526;13.390;2022-10-17T11:58:31;22.90;99.90
12254;DHT22;6189;52.526;13.390;2022-10-17T12:01:26;23.00;99.90
12254;DHT22;6189;52.526;13.390;2022-10-17T12:04:24;23.00;99.90
12254;DHT22;6189;52.526;13.390;2022-10-17T12:07:16;23.00;99.90
12254;DHT22;6189;52.526;13.390;2022-10-17T12:10:14;23.10;99.90
12254;DHT22;6189;52.526;13.390;2022-10-17T12:16:49;23.20;99.90
12254;DHT22;6189;52.526;13.390;2022-10-17T12:19:35;23.20;99.90
12254;DHT22;6189;52.526;13.390;2022-10-17T12:22:23;23.20;99.90
12254;DHT22;6189;52.526;13.390;2022-10-17T12:25:17;23.20;99.90
12254;DHT22;6189;52.526;13.390;2022-10-17T12:28:14;23.20;99.90
12254;DHT22;6189;52.526;13.390;2022-10-17T12:31:03;23.30;99.90
12254;DHT22;6189;52.526;13.390;2022-10-17T12:33:51;23.40;99.90
12254;DHT22;6189;52.526;13.390;2022-10-17T12:36:37;23.40;99.90
12254;DHT22;6189;52.526;13.390;2022-10-17T12:39:51;23.50;99.90
12254;DHT22;6189;52.526;13.390;2022-10-17T12:42:49;23.50;99.90
12254;DHT22;6189;52.526;13.390;2022-10-17T12:45:46;23.50;99.90
12254;DHT22;6189;52.526;13.390;2022-10-17T12:49:01;23.60;99.90
12254;DHT22;6189;52.526;13.390;2022-10-17T12:52:21;23.50;99.90
12254;DHT22;6189;52.526;13.390;2022-10-17T12:55:11;23.60;99.90
12254;DHT22;6189;52.526;13.390;2022-10-17T12:58:00;23.60;99.90
12254;DHT22;6189;52.526;13.390;2022-10-17T13:00:50;23.60;99.90
12254;DHT22;6189;52.526;13.390;2022-10-17T13:03:41;23.60;99.90
12254;DHT22;6189;52.526;13.390;2022-10-17T13:06:30;23.50;99.90
12254;DHT22;6189;52.526;13.390;2022-10-17T13:09:26;23.60;99.90
12254;DHT22;6189;52.526;13.390;2022-10-17T13:12:17;23.60;99.90
12254;DHT22;6189;52.526;13.390;2022-10-17T13:15:06;23.50;99.90
12254;DHT22;6189;52.526;13.390;2022-10-17T13:17:56;23.60;99.90
12254;DHT22;6189;52.526;13.390;2022-10-17T13:20:42;23.50;99.90
12254;DHT22;6189;52.526;13.390;2022-10-17T13:23:32;23.50;99.90
12254;DHT22;6189;52.526;13.390;2022-10-17T13:26:20;23.50;99.90
12254;DHT22;6189;52.526;13.390;2022-10-17T13:29:11;23.50;99.90
12254;DHT22;6189;52.526;13.390;2022-10-17T13:31:58;23.50;99.90
12254;DHT22;6189;52.526;13.390;2022-10-17T13:34:44;23.50;99.90
12254;DHT22;6189;52.526;13.390;2022-10-17T13:37:30;23.50;99.90
12254;DHT22;6189;52.526;13.390;2022-10-17T13:40:16;23.60;99.90
12254;DHT22;6189;52.526;13.390;2022-10-17T13:43:02;23.50;99.90
12254;DHT22;6189;52.526;13.390;2022-10-17T13:45:51;23.60;99.90
12254;DHT22;6189;52.526;13.390;2022-10-17T13:48:37;23.60;99.90
12254;DHT22;6189;52.526;13.390;2022-10-17T13:51:24;23.60;99.90
12254;DHT22;6189;52.526;13.390;2022-10-17T13:54:29;23.60;99.90
12254;DHT22;6189;52.526;13.390;2022-10-17T13:57:19;23.60;99.90
12254;DHT22;6189;52.526;13.390;2022-10-17T14:00:10;23.50;99.90
12254;DHT22;6189;52.526;13.390;2022-10-17T14:03:00;23.50;99.90
12254;DHT22;6189;52.526;13.390;2022-10-17T14:06:04;23.50;99.90
12254;DHT22;6189;52.526;13.390;2022-10-17T14:08:56;23.40;99.90
12254;DHT22;6189;52.526;13.390;2022-10-17T14:11:43;23.40;99.90
12254;DHT22;6189;52.526;13.390;2022-10-17T14:14:29;23.40;99.90
12254;DHT22;6189;52.526;13.390;2022-10-17T14:17:21;23.40;99.90
12254;DHT22;6189;52.526;13.390;2022-10-17T14:20:16;23.40;99.90
12254;DHT22;6189;52.526;13.390;2022-10-17T14:23:02;23.50;99.90
12254;DHT22;6189;52.526;13.390;2022-10-17T14:25:48;23.40;99.90
12254;DHT22;6189;52.526;13.390;2022-10-17T14:28:33;23.40;99.90
12254;DHT22;6189;52.526;13.390;2022-10-17T14:31:28;23.40;99.90
12254;DHT22;6189;52.526;13.390;2022-10-17T14:34:23;23.40;99.90
12254;DHT22;6189;52.526;13.390;2022-10-17T14:37:14;23.40;99.90
12254;DHT22;6189;52.526;13.390;2022-10-17T14:40:06;23.40;99.90
12254;DHT22;6189;52.526;13.390;2022-10-17T14:42:53;23.30;99.90
12254;DHT22;6189;52.526;13.390;2022-10-17T14:45:39;23.30;99.90
12254;DHT22;6189;52.526;13.390;2022-10-17T14:48:26;23.40;99.90
12254;DHT22;6189;52.526;13.390;2022-10-17T14:51:14;23.30;99.90
12254;DHT22;6189;52.526;13.390;2022-10-17T14:54:04;23.20;99.90
12254;DHT22;6189;52.526;13.390;2022-10-17T14:56:52;23.30;99.90
12254;DHT22;6189;52.526;13.390;2022-10-17T14:59:38;23.20;99.90
12254;DHT22;6189;52.526;13.390;2022-10-17T15:02:25;23.20;99.90
12254;DHT22;6189;52.526;13.390;2022-10-17T15:05:11;23.20;99.90
12254;DHT22;6189;52.526;13.390;2022-10-17T15:07:57;23.10;99.90
12254;DHT22;6189;52.526;13.390;2022-10-17T15:10:45;23.10;99.90
12254;DHT22;6189;52.526;13.390;2022-10-17T15:13:31;23.10;99.90
12254;DHT22;6189;52.526;13.390;2022-10-17T15:16:19;23.10;99.90
12254;DHT22;6189;52.526;13.390;2022-10-17T15:19:04;23.10;99.90
12254;DHT22;6189;52.526;13.390;2022-10-17T15:21:50;23.00;99.90
12254;DHT22;6189;52.526;13.390;2022-10-17T15:24:35;23.00;99.90
12254;DHT22;6189;52.526;13.390;2022-10-17T15:27:23;23.00;99.90
12254;DHT22;6189;52.526;13.390;2022-10-17T15:30:17;22.90;99.90
12254;DHT22;6189;52.526;13.390;2022-10-17T15:33:03;22.90;99.90
12254;DHT22;6189;52.526;13.390;2022-10-17T15:35:49;22.90;99.90
12254;DHT22;6189;52.526;13.390;2022-10-17T15:38:35;22.90;99.90
12254;DHT22;6189;52.526;13.390;2022-10-17T15:41:22;22.80;99.90
12254;DHT22;6189;52.526;13.390;2022-10-17T15:44:09;22.80;99.90
12254;DHT22;6189;52.526;13.390;2022-10-17T15:46:55;22.80;99.90
12254;DHT22;6189;52.526;13.390;2022-10-17T15:49:41;22.80;99.90
12254;DHT22;6189;52.526;13.390;2022-10-17T15:52:26;22.80;99.90
12254;DHT22;6189;52.526;13.390;2022-10-17T15:55:12;22.70;99.90
12254;DHT22;6189;52.526;13.390;2022-10-17T15:57:57;22.70;99.90
12254;DHT22;6189;52.526;13.390;2022-10-17T16:00:45;22.70;99.90
12254;DHT22;6189;52.526;13.390;2022-10-17T16:03:31;22.70;99.90
12254;DHT22;6189;52.526;13.390;2022-10-17T16:06:17;22.60;99.90
12254;DHT22;6189;52.526;13.390;2022-10-17T16:09:03;22.50;99.90
12254;DHT22;6189;52.526;13.390;2022-10-17T16:11:48;22.50;99.90
12254;DHT22;6189;52.526;13.390;2022-10-17T16:14:33;22.40;99.90
12254;DHT22;6189;52.526;13.390;2022-10-17T16:17:20;22.40;99.90
12254;DHT22;6189;52.526;13.390;2022-10-17T16:20:06;22.40;99.90
12254;DHT22;6189;52.526;13.390;2022-10-17T16:22:52;22.30;99.90
12254;DHT22;6189;52.526;13.390;2022-10-17T16:25:42;22.30;99.90
12254;DHT22;6189;52.526;13.390;2022-10-17T16:28:28;22.30;99.90
12254;DHT22;6189;52.526;13.390;2022-10-17T16:31:19;22.30;99.90
12254;DHT22;6189;52.526;13.390;2022-10-17T16:34:07;22.20;99.90
12254;DHT22;6189;52.526;13.390;2022-10-17T16:36:52;22.20;99.90
12254;DHT22;6189;52.526;13.390;2022-10-17T16:39:38;22.20;99.90
12254;DHT22;6189;52.526;13.390;2022-10-17T16:42:23;22.20;99.90
12254;DHT22;6189;52.526;13.390;2022-10-17T16:45:09;22.10;99.90
12254;DHT22;6189;52.526;13.390;2022-10-17T16:47:59;22.10;99.90
12254;DHT22;6189;52.526;13.390;2022-10-17T16:50:46;22.10;99.90
12254;DHT22;6189;52.526;13.390;2022-10-17T16:53:31;22.10;99.90
12254;DHT22;6189;52.526;13.390;2022-10-17T16:56:18;22.10;99.90
12254;DHT22;6189;52.526;13.390;2022-10-17T16:59:03;22.00;99.90
12254;DHT22;6189;52.526;13.390;2022-10-17T17:01:49;22.00;99.90
12254;DHT22;6189;52.526;13.390;2022-10-17T17:04:34;22.00;99.90
12254;DHT22;6189;52.526;13.390;2022-10-17T17:07:21;22.00;99.90
12254;DHT22;6189;52.526;13.390;2022-10-17T17:10:08;21.90;99.90
12254;DHT22;6189;52.526;13.390;2022-10-17T17:12:53;21.80;99.90
12254;DHT22;6189;52.526;13.390;2022-10-17T17:15:39;21.80;99.90
12254;DHT22;6189;52.526;13.390;2022-10-17T17:18:24;21.70;99.90
12254;DHT22;6189;52.526;13.390;2022-10-17T17:21:10;21.60;99.90
12254;DHT22;6189;52.526;13.390;2022-10-17T17:23:58;21.60;99.90
12254;DHT22;6189;52.526;13.390;2022-10-17T17:26:44;21.60;99.90
12254;DHT22;6189;52.526;13.390;2022-10-17T17:29:30;21.60;99.90
12254;DHT22;6189;52.526;13.390;2022-10-17T17:32:15;21.60;99.90
12254;DHT22;6189;52.526;13.390;2022-10-17T17:35:01;21.60;99.90
12254;DHT22;6189;52.526;13.390;2022-10-17T17:37:46;21.60;99.90
12254;DHT22;6189;52.526;13.390;2022-10-17T17:40:33;21.50;99.90
12254;DHT22;6189;52.526;13.390;2022-10-17T17:43:18;21.50;99.90
12254;DHT22;6189;52.526;13.390;2022-10-17T17:46:04;21.40;99.90
12254;DHT22;6189;52.526;13.390;2022-10-17T17:48:51;21.50;99.90